Aérodrome :
LOGIN :

S'inscrire | Disclaimer

   EN    FR    IT 

 










Légende :    VFR   VFR Marginal   IFR   IFR Intensif   IFR Très Intensif
Visi : 
Plafond : 
>= 8 km
>= 3000ft
5 à 8 km
1000 à 3000 ft
1500m à 5 km
500 à 1000 ft
800 à 1500m
200 à 500 ft
< 800m
< 200 ft
Symboles :   Orages  Brouillard  Fortes neiges  Fortes précipitations  Vent > 20 kt
SIGMETs :   Divers  Orages  Givrage  Turbulence  Onde Orograph.  Cendres Volcan.






- Altitude de l'aérodrome : 479 ft
- Code IATA : DOL


LFRG - Deauville

DERNIER METAR :
  • 021730Z AUTO 33006KT 290V020 CAVOK 19/10 Q1020 NOSIG

METARs EXPIRÉS :
  • 021700Z AUTO 33005KT 260V070 CAVOK 19/11 Q1019 NOSIG
  • 021630Z AUTO 32006KT 280V020 CAVOK 19/11 Q1020 NOSIG
  • 021600Z AUTO 31006KT 280V350 CAVOK 18/11 Q1020 NOSIG
  • 021530Z AUTO 32009KT 280V350 CAVOK 19/11 Q1020 NOSIG
  • 021500Z AUTO 33010KT 290V360 CAVOK 19/11 Q1020 NOSIG

TAF TAF LFRG
Valide du 02 à 15h jusqu'au 03 à 00h UTC


021400Z 0215/0224 33010KT CAVOK
BECMG 0219/0221 VRB05KT
PROB40
TEMPO 0222/0224 BKN014
ATIS : +33 2 31 65 65 36



MET'MAP, la Météo Aéronautique d'un coup d'oeil ! - Copyright ORBIFLY Décembre 2007 - Disclaimer

ORBIFLY MET'MAP TEAM :

Programmation & Développement : Alexandra Zaïnal
Sur une idée originale de : Baudouin d'Aumeries
Soutien technique & logistique : Manuel Goepfert
Assistance : Marc-Olivier Méhu




SOURCES & CREDITS :

   NOAA